sensor_id;sensor_type;location;lat;lon;timestamp;temperature;humidity
17172;DHT22;8701;50.150;8.756;2022-09-16T00:02:02;16.40;99.90
17172;DHT22;8701;50.150;8.756;2022-09-16T00:06:04;16.40;99.90
17172;DHT22;8701;50.150;8.756;2022-09-16T00:10:07;16.30;99.90
17172;DHT22;8701;50.150;8.756;2022-09-16T00:14:11;16.30;99.90
17172;DHT22;8701;50.150;8.756;2022-09-16T00:18:13;16.40;99.90
17172;DHT22;8701;50.150;8.756;2022-09-16T00:22:15;16.30;99.90
17172;DHT22;8701;50.150;8.756;2022-09-16T00:26:18;16.20;99.90
17172;DHT22;8701;50.150;8.756;2022-09-16T00:30:22;16.20;99.90
17172;DHT22;8701;50.150;8.756;2022-09-16T00:34:24;16.20;99.90
17172;DHT22;8701;50.150;8.756;2022-09-16T00:38:26;16.20;99.90
17172;DHT22;8701;50.150;8.756;2022-09-16T00:42:28;16.20;99.90
17172;DHT22;8701;50.150;8.756;2022-09-16T00:46:35;16.20;99.90
17172;DHT22;8701;50.150;8.756;2022-09-16T00:50:41;16.20;99.90
17172;DHT22;8701;50.150;8.756;2022-09-16T00:54:45;16.20;99.90
17172;DHT22;8701;50.150;8.756;2022-09-16T00:58:50;16.10;99.90
17172;DHT22;8701;50.150;8.756;2022-09-16T01:02:56;16.10;99.90
17172;DHT22;8701;50.150;8.756;2022-09-16T01:06:58;16.00;99.90
17172;DHT22;8701;50.150;8.756;2022-09-16T01:11:00;16.00;99.90
17172;DHT22;8701;50.150;8.756;2022-09-16T01:15:04;16.00;99.90
17172;DHT22;8701;50.150;8.756;2022-09-16T01:19:11;15.90;99.90
17172;DHT22;8701;50.150;8.756;2022-09-16T01:28:28;15.90;99.90
17172;DHT22;8701;50.150;8.756;2022-09-16T01:32:44;15.90;99.90
17172;DHT22;8701;50.150;8.756;2022-09-16T01:36:57;15.80;99.90
17172;DHT22;8701;50.150;8.756;2022-09-16T01:41:07;15.80;99.90
17172;DHT22;8701;50.150;8.756;2022-09-16T01:45:14;15.70;99.90
17172;DHT22;8701;50.150;8.756;2022-09-16T01:49:25;15.70;99.90
17172;DHT22;8701;50.150;8.756;2022-09-16T01:53:33;15.70;99.90
17172;DHT22;8701;50.150;8.756;2022-09-16T01:57:46;15.70;99.90
17172;DHT22;8701;50.150;8.756;2022-09-16T02:01:55;15.70;99.90
17172;DHT22;8701;50.150;8.756;2022-09-16T02:06:04;15.70;99.90
17172;DHT22;8701;50.150;8.756;2022-09-16T02:10:12;15.60;99.90
17172;DHT22;8701;50.150;8.756;2022-09-16T02:14:18;15.60;99.90
17172;DHT22;8701;50.150;8.756;2022-09-16T02:18:26;15.60;99.90
17172;DHT22;8701;50.150;8.756;2022-09-16T02:22:33;15.60;99.90
17172;DHT22;8701;50.150;8.756;2022-09-16T02:26:40;15.60;99.90
17172;DHT22;8701;50.150;8.756;2022-09-16T02:30:47;15.70;99.90
17172;DHT22;8701;50.150;8.756;2022-09-16T02:34:51;15.70;99.90
17172;DHT22;8701;50.150;8.756;2022-09-16T02:38:59;15.60;99.90
17172;DHT22;8701;50.150;8.756;2022-09-16T02:43:03;15.60;99.90
17172;DHT22;8701;50.150;8.756;2022-09-16T02:47:10;15.60;99.90
17172;DHT22;8701;50.150;8.756;2022-09-16T02:51:20;15.60;99.90
17172;DHT22;8701;50.150;8.756;2022-09-16T02:55:33;15.50;99.90
17172;DHT22;8701;50.150;8.756;2022-09-16T02:59:39;15.40;99.90
17172;DHT22;8701;50.150;8.756;2022-09-16T03:03:42;15.40;99.90
17172;DHT22;8701;50.150;8.756;2022-09-16T03:07:44;15.40;99.90
17172;DHT22;8701;50.150;8.756;2022-09-16T03:12:09;15.40;99.90
17172;DHT22;8701;50.150;8.756;2022-09-16T03:16:20;15.30;99.90
17172;DHT22;8701;50.150;8.756;2022-09-16T03:20:29;15.30;99.90
17172;DHT22;8701;50.150;8.756;2022-09-16T03:24:44;15.30;99.90
17172;DHT22;8701;50.150;8.756;2022-09-16T03:28:57;15.30;99.90
17172;DHT22;8701;50.150;8.756;2022-09-16T03:33:07;15.30;99.90
17172;DHT22;8701;50.150;8.756;2022-09-16T03:37:14;15.30;99.90
17172;DHT22;8701;50.150;8.756;2022-09-16T03:41:18;15.30;99.90
17172;DHT22;8701;50.150;8.756;2022-09-16T03:45:22;15.30;99.90
17172;DHT22;8701;50.150;8.756;2022-09-16T03:49:25;15.30;99.90
17172;DHT22;8701;50.150;8.756;2022-09-16T03:53:27;15.30;99.90
17172;DHT22;8701;50.150;8.756;2022-09-16T03:57:29;15.30;99.90
17172;DHT22;8701;50.150;8.756;2022-09-16T04:01:33;15.30;99.90
17172;DHT22;8701;50.150;8.756;2022-09-16T04:05:35;15.30;99.90
17172;DHT22;8701;50.150;8.756;2022-09-16T04:09:37;15.30;99.90
17172;DHT22;8701;50.150;8.756;2022-09-16T04:13:40;15.30;99.90
17172;DHT22;8701;50.150;8.756;2022-09-16T04:17:43;15.20;99.90
17172;DHT22;8701;50.150;8.756;2022-09-16T04:21:45;15.20;99.90
17172;DHT22;8701;50.150;8.756;2022-09-16T04:25:53;15.10;99.90
17172;DHT22;8701;50.150;8.756;2022-09-16T04:29:55;15.10;99.90
17172;DHT22;8701;50.150;8.756;2022-09-16T04:34:00;15.10;99.90
17172;DHT22;8701;50.150;8.756;2022-09-16T04:38:02;15.00;99.90
17172;DHT22;8701;50.150;8.756;2022-09-16T04:42:05;15.00;99.90
17172;DHT22;8701;50.150;8.756;2022-09-16T04:46:08;14.90;99.90
17172;DHT22;8701;50.150;8.756;2022-09-16T04:50:12;14.90;99.90
17172;DHT22;8701;50.150;8.756;2022-09-16T04:54:14;15.00;99.90
17172;DHT22;8701;50.150;8.756;2022-09-16T04:58:16;15.00;99.90
17172;DHT22;8701;50.150;8.756;2022-09-16T05:02:18;15.00;99.90
17172;DHT22;8701;50.150;8.756;2022-09-16T05:06:24;15.00;99.90
17172;DHT22;8701;50.150;8.756;2022-09-16T05:10:26;14.90;99.90
17172;DHT22;8701;50.150;8.756;2022-09-16T05:14:28;14.90;99.90
17172;DHT22;8701;50.150;8.756;2022-09-16T05:18:31;14.90;99.90
17172;DHT22;8701;50.150;8.756;2022-09-16T05:22:34;14.90;99.90
17172;DHT22;8701;50.150;8.756;2022-09-16T05:26:38;14.80;99.90
17172;DHT22;8701;50.150;8.756;2022-09-16T05:30:41;14.90;99.90
17172;DHT22;8701;50.150;8.756;2022-09-16T05:34:44;14.90;99.90
17172;DHT22;8701;50.150;8.756;2022-09-16T05:38:48;14.80;99.90
17172;DHT22;8701;50.150;8.756;2022-09-16T05:42:50;14.80;99.90
17172;DHT22;8701;50.150;8.756;2022-09-16T05:46:53;14.90;99.90
17172;DHT22;8701;50.150;8.756;2022-09-16T05:50:56;14.90;99.90
17172;DHT22;8701;50.150;8.756;2022-09-16T05:55:00;15.00;99.90
17172;DHT22;8701;50.150;8.756;2022-09-16T05:59:03;15.00;99.90
17172;DHT22;8701;50.150;8.756;2022-09-16T06:03:05;15.10;99.90
17172;DHT22;8701;50.150;8.756;2022-09-16T06:07:07;15.10;99.90
17172;DHT22;8701;50.150;8.756;2022-09-16T06:11:11;15.10;99.90
17172;DHT22;8701;50.150;8.756;2022-09-16T06:15:14;15.10;99.90
17172;DHT22;8701;50.150;8.756;2022-09-16T06:19:17;15.10;99.90
17172;DHT22;8701;50.150;8.756;2022-09-16T06:23:21;15.10;99.90
17172;DHT22;8701;50.150;8.756;2022-09-16T06:27:24;15.00;99.90
17172;DHT22;8701;50.150;8.756;2022-09-16T06:31:28;15.00;99.90
17172;DHT22;8701;50.150;8.756;2022-09-16T06:35:30;15.00;99.90
17172;DHT22;8701;50.150;8.756;2022-09-16T06:39:34;15.10;99.90
17172;DHT22;8701;50.150;8.756;2022-09-16T06:43:38;15.10;99.90
17172;DHT22;8701;50.150;8.756;2022-09-16T06:47:40;15.10;99.90
17172;DHT22;8701;50.150;8.756;2022-09-16T06:51:43;15.20;99.90
17172;DHT22;8701;50.150;8.756;2022-09-16T06:55:45;15.30;99.90
17172;DHT22;8701;50.150;8.756;2022-09-16T06:59:48;15.30;99.90
17172;DHT22;8701;50.150;8.756;2022-09-16T07:03:51;15.40;99.90
17172;DHT22;8701;50.150;8.756;2022-09-16T07:07:54;15.30;99.90
17172;DHT22;8701;50.150;8.756;2022-09-16T07:11:56;15.30;99.90
17172;DHT22;8701;50.150;8.756;2022-09-16T07:16:02;15.30;99.90
17172;DHT22;8701;50.150;8.756;2022-09-16T07:20:05;15.60;99.90
17172;DHT22;8701;50.150;8.756;2022-09-16T07:24:10;15.60;99.90
17172;DHT22;8701;50.150;8.756;2022-09-16T07:28:12;15.70;99.90
17172;DHT22;8701;50.150;8.756;2022-09-16T07:32:16;15.90;99.90
17172;DHT22;8701;50.150;8.756;2022-09-16T07:36:20;16.00;99.90
17172;DHT22;8701;50.150;8.756;2022-09-16T07:40:22;17.40;99.90
17172;DHT22;8701;50.150;8.756;2022-09-16T07:44:24;18.60;99.90
17172;DHT22;8701;50.150;8.756;2022-09-16T07:48:29;19.20;99.90
17172;DHT22;8701;50.150;8.756;2022-09-16T07:52:31;19.40;99.90
17172;DHT22;8701;50.150;8.756;2022-09-16T07:56:35;19.70;99.90
17172;DHT22;8701;50.150;8.756;2022-09-16T08:00:38;20.20;99.90
17172;DHT22;8701;50.150;8.756;2022-09-16T08:04:41;21.10;99.90
17172;DHT22;8701;50.150;8.756;2022-09-16T08:08:44;20.60;99.90
17172;DHT22;8701;50.150;8.756;2022-09-16T08:12:47;19.60;99.90
17172;DHT22;8701;50.150;8.756;2022-09-16T08:16:50;19.00;99.90
17172;DHT22;8701;50.150;8.756;2022-09-16T08:20:53;20.00;99.90
17172;DHT22;8701;50.150;8.756;2022-09-16T08:24:56;22.20;99.90
17172;DHT22;8701;50.150;8.756;2022-09-16T08:28:58;23.90;99.90
17172;DHT22;8701;50.150;8.756;2022-09-16T08:33:00;23.80;99.90
17172;DHT22;8701;50.150;8.756;2022-09-16T08:37:04;24.60;99.40
17172;DHT22;8701;50.150;8.756;2022-09-16T08:41:18;23.80;99.00
17172;DHT22;8701;50.150;8.756;2022-09-16T08:45:26;23.80;99.10
17172;DHT22;8701;50.150;8.756;2022-09-16T08:49:33;24.60;98.80
17172;DHT22;8701;50.150;8.756;2022-09-16T08:53:40;25.10;96.20
17172;DHT22;8701;50.150;8.756;2022-09-16T08:57:53;26.60;95.20
17172;DHT22;8701;50.150;8.756;2022-09-16T09:02:10;27.70;90.10
17172;DHT22;8701;50.150;8.756;2022-09-16T09:06:27;29.00;89.40
17172;DHT22;8701;50.150;8.756;2022-09-16T09:10:39;28.50;84.50
17172;DHT22;8701;50.150;8.756;2022-09-16T09:14:59;26.30;87.60
17172;DHT22;8701;50.150;8.756;2022-09-16T09:19:22;23.60;90.40
17172;DHT22;8701;50.150;8.756;2022-09-16T09:23:35;22.40;93.30
17172;DHT22;8701;50.150;8.756;2022-09-16T09:27:47;24.00;93.40
17172;DHT22;8701;50.150;8.756;2022-09-16T09:31:58;25.10;89.80
17172;DHT22;8701;50.150;8.756;2022-09-16T09:36:23;26.20;87.30
17172;DHT22;8701;50.150;8.756;2022-09-16T09:40:33;26.10;87.40
17172;DHT22;8701;50.150;8.756;2022-09-16T09:44:46;24.90;90.90
17172;DHT22;8701;50.150;8.756;2022-09-16T09:48:54;24.30;92.80
17172;DHT22;8701;50.150;8.756;2022-09-16T09:53:04;24.70;90.20
17172;DHT22;8701;50.150;8.756;2022-09-16T09:57:12;24.90;90.60
17172;DHT22;8701;50.150;8.756;2022-09-16T10:01:17;23.60;89.50
17172;DHT22;8701;50.150;8.756;2022-09-16T10:05:21;22.40;90.80
17172;DHT22;8701;50.150;8.756;2022-09-16T10:09:24;21.50;93.70
17172;DHT22;8701;50.150;8.756;2022-09-16T10:13:28;21.60;94.00
17172;DHT22;8701;50.150;8.756;2022-09-16T10:17:32;21.90;93.10
17172;DHT22;8701;50.150;8.756;2022-09-16T10:21:42;21.10;92.60
17172;DHT22;8701;50.150;8.756;2022-09-16T10:25:47;20.40;95.10
17172;DHT22;8701;50.150;8.756;2022-09-16T10:30:05;19.90;97.10
17172;DHT22;8701;50.150;8.756;2022-09-16T10:34:16;20.00;98.90
17172;DHT22;8701;50.150;8.756;2022-09-16T10:38:20;20.00;97.50
17172;DHT22;8701;50.150;8.756;2022-09-16T10:42:25;19.90;99.10
17172;DHT22;8701;50.150;8.756;2022-09-16T10:46:29;19.90;97.40
17172;DHT22;8701;50.150;8.756;2022-09-16T10:50:33;19.60;99.60
17172;DHT22;8701;50.150;8.756;2022-09-16T10:54:35;19.80;99.90
17172;DHT22;8701;50.150;8.756;2022-09-16T10:58:37;20.00;99.90
17172;DHT22;8701;50.150;8.756;2022-09-16T11:07:22;19.70;99.90
17172;DHT22;8701;50.150;8.756;2022-09-16T11:11:47;19.70;99.90
17172;DHT22;8701;50.150;8.756;2022-09-16T11:16:07;19.60;99.90
17172;DHT22;8701;50.150;8.756;2022-09-16T11:20:49;19.90;99.90
17172;DHT22;8701;50.150;8.756;2022-09-16T11:25:15;22.10;94.70
17172;DHT22;8701;50.150;8.756;2022-09-16T11:29:39;23.80;93.20
17172;DHT22;8701;50.150;8.756;2022-09-16T11:33:48;25.10;91.40
17172;DHT22;8701;50.150;8.756;2022-09-16T11:37:56;24.90;94.10
17172;DHT22;8701;50.150;8.756;2022-09-16T11:42:07;24.30;91.00
17172;DHT22;8701;50.150;8.756;2022-09-16T11:46:18;23.40;93.50
17172;DHT22;8701;50.150;8.756;2022-09-16T11:50:36;22.50;93.60
17172;DHT22;8701;50.150;8.756;2022-09-16T11:54:53;22.00;93.60
17172;DHT22;8701;50.150;8.756;2022-09-16T11:59:01;21.00;94.60
17172;DHT22;8701;50.150;8.756;2022-09-16T12:03:10;20.70;96.70
17172;DHT22;8701;50.150;8.756;2022-09-16T12:07:16;20.20;99.90
17172;DHT22;8701;50.150;8.756;2022-09-16T12:11:24;19.40;99.90
17172;DHT22;8701;50.150;8.756;2022-09-16T12:15:38;19.00;99.90
17172;DHT22;8701;50.150;8.756;2022-09-16T12:19:46;18.90;99.90
17172;DHT22;8701;50.150;8.756;2022-09-16T12:23:54;18.70;99.90
17172;DHT22;8701;50.150;8.756;2022-09-16T12:28:01;18.60;99.90
17172;DHT22;8701;50.150;8.756;2022-09-16T12:32:10;18.80;99.90
17172;DHT22;8701;50.150;8.756;2022-09-16T12:36:17;18.90;99.90
17172;DHT22;8701;50.150;8.756;2022-09-16T12:40:25;19.30;99.90
17172;DHT22;8701;50.150;8.756;2022-09-16T12:45:04;19.70;99.90
17172;DHT22;8701;50.150;8.756;2022-09-16T12:49:37;19.80;99.90
17172;DHT22;8701;50.150;8.756;2022-09-16T12:54:04;21.10;99.90
17172;DHT22;8701;50.150;8.756;2022-09-16T12:58:28;23.90;99.90
17172;DHT22;8701;50.150;8.756;2022-09-16T13:02:36;24.70;95.40
17172;DHT22;8701;50.150;8.756;2022-09-16T13:06:45;24.40;95.60
17172;DHT22;8701;50.150;8.756;2022-09-16T13:10:56;24.90;95.10
17172;DHT22;8701;50.150;8.756;2022-09-16T13:15:00;25.80;93.40
17172;DHT22;8701;50.150;8.756;2022-09-16T13:19:38;26.60;90.80
17172;DHT22;8701;50.150;8.756;2022-09-16T13:23:45;27.30;91.20
17172;DHT22;8701;50.150;8.756;2022-09-16T13:27:55;26.60;89.60
17172;DHT22;8701;50.150;8.756;2022-09-16T13:31:58;26.20;89.00
17172;DHT22;8701;50.150;8.756;2022-09-16T13:36:10;25.10;90.40
17172;DHT22;8701;50.150;8.756;2022-09-16T13:40:20;24.00;90.80
17172;DHT22;8701;50.150;8.756;2022-09-16T13:44:29;23.20;92.90
17172;DHT22;8701;50.150;8.756;2022-09-16T13:48:43;22.40;93.00
17172;DHT22;8701;50.150;8.756;2022-09-16T13:52:46;21.90;93.50
17172;DHT22;8701;50.150;8.756;2022-09-16T14:01:31;21.20;96.80
17172;DHT22;8701;50.150;8.756;2022-09-16T14:05:56;21.00;96.10
17172;DHT22;8701;50.150;8.756;2022-09-16T14:10:07;21.20;98.00
17172;DHT22;8701;50.150;8.756;2022-09-16T14:14:14;21.20;96.70
17172;DHT22;8701;50.150;8.756;2022-09-16T14:18:20;20.50;97.00
17172;DHT22;8701;50.150;8.756;2022-09-16T14:22:24;20.10;98.10
17172;DHT22;8701;50.150;8.756;2022-09-16T14:26:27;19.90;99.90
17172;DHT22;8701;50.150;8.756;2022-09-16T14:30:31;20.10;99.90
17172;DHT22;8701;50.150;8.756;2022-09-16T14:34:35;20.10;99.30
17172;DHT22;8701;50.150;8.756;2022-09-16T14:38:42;20.30;97.60
17172;DHT22;8701;50.150;8.756;2022-09-16T14:42:48;20.40;99.10
17172;DHT22;8701;50.150;8.756;2022-09-16T14:46:56;20.60;96.70
17172;DHT22;8701;50.150;8.756;2022-09-16T14:51:00;20.60;97.50
17172;DHT22;8701;50.150;8.756;2022-09-16T14:55:06;20.30;96.40
17172;DHT22;8701;50.150;8.756;2022-09-16T14:59:11;20.40;96.90
17172;DHT22;8701;50.150;8.756;2022-09-16T15:03:21;20.40;98.20
17172;DHT22;8701;50.150;8.756;2022-09-16T15:07:29;20.20;98.40
17172;DHT22;8701;50.150;8.756;2022-09-16T15:11:35;20.10;99.10
17172;DHT22;8701;50.150;8.756;2022-09-16T15:15:48;20.10;97.90
17172;DHT22;8701;50.150;8.756;2022-09-16T15:19:56;20.10;99.90
17172;DHT22;8701;50.150;8.756;2022-09-16T15:24:01;20.00;99.60
17172;DHT22;8701;50.150;8.756;2022-09-16T15:28:04;19.60;98.00
17172;DHT22;8701;50.150;8.756;2022-09-16T15:32:16;19.10;98.90
17172;DHT22;8701;50.150;8.756;2022-09-16T15:36:36;18.60;99.90
17172;DHT22;8701;50.150;8.756;2022-09-16T15:40:39;18.40;99.90
17172;DHT22;8701;50.150;8.756;2022-09-16T15:44:44;17.90;99.90
17172;DHT22;8701;50.150;8.756;2022-09-16T15:48:49;18.00;99.90
17172;DHT22;8701;50.150;8.756;2022-09-16T15:52:58;17.90;99.90
17172;DHT22;8701;50.150;8.756;2022-09-16T15:57:07;17.80;99.90
17172;DHT22;8701;50.150;8.756;2022-09-16T16:01:13;17.60;99.90
17172;DHT22;8701;50.150;8.756;2022-09-16T16:05:19;17.40;99.90
17172;DHT22;8701;50.150;8.756;2022-09-16T16:09:33;17.30;99.90
17172;DHT22;8701;50.150;8.756;2022-09-16T16:13:35;17.00;99.90
17172;DHT22;8701;50.150;8.756;2022-09-16T16:17:38;17.00;99.90
17172;DHT22;8701;50.150;8.756;2022-09-16T16:21:41;17.10;99.90
17172;DHT22;8701;50.150;8.756;2022-09-16T16:25:47;17.00;99.90
17172;DHT22;8701;50.150;8.756;2022-09-16T16:29:49;17.30;99.90
17172;DHT22;8701;50.150;8.756;2022-09-16T16:33:51;17.40;99.90
17172;DHT22;8701;50.150;8.756;2022-09-16T16:37:54;17.20;99.90
17172;DHT22;8701;50.150;8.756;2022-09-16T16:41:58;17.20;99.90
17172;DHT22;8701;50.150;8.756;2022-09-16T16:46:05;17.10;99.90
17172;DHT22;8701;50.150;8.756;2022-09-16T16:50:08;17.10;99.90
17172;DHT22;8701;50.150;8.756;2022-09-16T16:54:10;17.10;99.90
17172;DHT22;8701;50.150;8.756;2022-09-16T16:58:14;17.00;99.90
17172;DHT22;8701;50.150;8.756;2022-09-16T17:02:16;17.00;99.90
17172;DHT22;8701;50.150;8.756;2022-09-16T17:06:19;17.00;99.90
17172;DHT22;8701;50.150;8.756;2022-09-16T17:10:21;16.90;99.90
17172;DHT22;8701;50.150;8.756;2022-09-16T17:14:28;16.60;99.90
17172;DHT22;8701;50.150;8.756;2022-09-16T17:18:32;16.60;99.90
17172;DHT22;8701;50.150;8.756;2022-09-16T17:22:35;16.40;99.90
17172;DHT22;8701;50.150;8.756;2022-09-16T17:26:37;16.40;99.90
17172;DHT22;8701;50.150;8.756;2022-09-16T17:30:42;16.20;99.90
17172;DHT22;8701;50.150;8.756;2022-09-16T17:34:45;16.20;99.90
17172;DHT22;8701;50.150;8.756;2022-09-16T17:38:47;16.00;99.90
17172;DHT22;8701;50.150;8.756;2022-09-16T17:42:50;16.00;99.90
17172;DHT22;8701;50.150;8.756;2022-09-16T17:46:54;16.00;99.90
17172;DHT22;8701;50.150;8.756;2022-09-16T17:50:57;16.00;99.90
17172;DHT22;8701;50.150;8.756;2022-09-16T17:54:59;16.10;99.90
17172;DHT22;8701;50.150;8.756;2022-09-16T17:59:02;16.00;99.90
17172;DHT22;8701;50.150;8.756;2022-09-16T18:03:05;15.80;99.90
17172;DHT22;8701;50.150;8.756;2022-09-16T18:07:08;15.70;99.90
17172;DHT22;8701;50.150;8.756;2022-09-16T18:11:12;15.60;99.90
17172;DHT22;8701;50.150;8.756;2022-09-16T18:15:14;15.50;99.90
17172;DHT22;8701;50.150;8.756;2022-09-16T18:19:18;15.30;99.90
17172;DHT22;8701;50.150;8.756;2022-09-16T18:23:20;15.10;99.90
17172;DHT22;8701;50.150;8.756;2022-09-16T18:27:23;15.20;99.90
17172;DHT22;8701;50.150;8.756;2022-09-16T18:31:26;15.10;99.90
17172;DHT22;8701;50.150;8.756;2022-09-16T18:35:30;15.10;99.90
17172;DHT22;8701;50.150;8.756;2022-09-16T18:39:37;15.10;99.90
17172;DHT22;8701;50.150;8.756;2022-09-16T18:43:40;14.90;99.90
17172;DHT22;8701;50.150;8.756;2022-09-16T18:47:43;14.90;99.90
17172;DHT22;8701;50.150;8.756;2022-09-16T18:51:48;14.80;99.90
17172;DHT22;8701;50.150;8.756;2022-09-16T18:55:51;14.80;99.90
17172;DHT22;8701;50.150;8.756;2022-09-16T18:59:53;14.80;99.90
17172;DHT22;8701;50.150;8.756;2022-09-16T19:03:57;14.70;99.90
17172;DHT22;8701;50.150;8.756;2022-09-16T19:08:01;14.70;99.90
17172;DHT22;8701;50.150;8.756;2022-09-16T19:12:04;14.50;99.90
17172;DHT22;8701;50.150;8.756;2022-09-16T19:16:07;14.40;99.90
17172;DHT22;8701;50.150;8.756;2022-09-16T19:20:09;14.10;99.90
17172;DHT22;8701;50.150;8.756;2022-09-16T19:24:15;14.10;99.90
17172;DHT22;8701;50.150;8.756;2022-09-16T19:28:18;14.00;99.90
17172;DHT22;8701;50.150;8.756;2022-09-16T19:32:20;13.90;99.90
17172;DHT22;8701;50.150;8.756;2022-09-16T19:36:25;13.80;99.90
17172;DHT22;8701;50.150;8.756;2022-09-16T19:40:29;13.90;99.90
17172;DHT22;8701;50.150;8.756;2022-09-16T19:44:32;13.90;99.90
17172;DHT22;8701;50.150;8.756;2022-09-16T19:48:37;13.90;99.90
17172;DHT22;8701;50.150;8.756;2022-09-16T19:52:40;13.80;99.90
17172;DHT22;8701;50.150;8.756;2022-09-16T19:56:44;13.90;99.90
17172;DHT22;8701;50.150;8.756;2022-09-16T20:00:46;13.80;99.90
17172;DHT22;8701;50.150;8.756;2022-09-16T20:04:49;13.80;99.90
17172;DHT22;8701;50.150;8.756;2022-09-16T20:08:52;13.80;99.90
17172;DHT22;8701;50.150;8.756;2022-09-16T20:12:56;13.70;99.90
17172;DHT22;8701;50.150;8.756;2022-09-16T20:16:58;13.70;99.90
17172;DHT22;8701;50.150;8.756;2022-09-16T20:21:01;13.70;99.90
17172;DHT22;8701;50.150;8.756;2022-09-16T20:25:05;14.00;99.90
17172;DHT22;8701;50.150;8.756;2022-09-16T20:29:09;13.70;99.90
17172;DHT22;8701;50.150;8.756;2022-09-16T20:33:11;13.70;99.90
17172;DHT22;8701;50.150;8.756;2022-09-16T20:37:13;13.60;99.90
17172;DHT22;8701;50.150;8.756;2022-09-16T20:41:17;13.50;99.90
17172;DHT22;8701;50.150;8.756;2022-09-16T20:45:21;13.40;99.90
17172;DHT22;8701;50.150;8.756;2022-09-16T20:49:23;13.10;99.90
17172;DHT22;8701;50.150;8.756;2022-09-16T20:53:26;13.10;99.90
17172;DHT22;8701;50.150;8.756;2022-09-16T20:57:28;13.10;99.90
17172;DHT22;8701;50.150;8.756;2022-09-16T21:01:32;13.10;99.90
17172;DHT22;8701;50.150;8.756;2022-09-16T21:05:34;13.00;99.90
17172;DHT22;8701;50.150;8.756;2022-09-16T21:09:37;13.10;99.90
17172;DHT22;8701;50.150;8.756;2022-09-16T21:13:41;13.10;99.90
17172;DHT22;8701;50.150;8.756;2022-09-16T21:17:45;13.10;99.90
17172;DHT22;8701;50.150;8.756;2022-09-16T21:21:47;13.10;99.90
17172;DHT22;8701;50.150;8.756;2022-09-16T21:25:49;13.10;99.90
17172;DHT22;8701;50.150;8.756;2022-09-16T21:29:51;13.10;99.90
17172;DHT22;8701;50.150;8.756;2022-09-16T21:33:57;13.20;99.90
17172;DHT22;8701;50.150;8.756;2022-09-16T21:37:59;13.20;99.90
17172;DHT22;8701;50.150;8.756;2022-09-16T21:42:01;13.00;99.90
17172;DHT22;8701;50.150;8.756;2022-09-16T21:46:07;13.00;99.90
17172;DHT22;8701;50.150;8.756;2022-09-16T21:50:12;12.80;99.90
17172;DHT22;8701;50.150;8.756;2022-09-16T21:54:15;12.80;99.90
17172;DHT22;8701;50.150;8.756;2022-09-16T21:58:17;12.80;99.90
17172;DHT22;8701;50.150;8.756;2022-09-16T22:02:20;12.70;99.90
17172;DHT22;8701;50.150;8.756;2022-09-16T22:06:24;12.60;99.90
17172;DHT22;8701;50.150;8.756;2022-09-16T22:10:27;12.70;99.90
17172;DHT22;8701;50.150;8.756;2022-09-16T22:14:29;12.70;99.90
17172;DHT22;8701;50.150;8.756;2022-09-16T22:18:34;12.60;99.90
17172;DHT22;8701;50.150;8.756;2022-09-16T22:22:38;12.60;99.90
17172;DHT22;8701;50.150;8.756;2022-09-16T22:26:40;12.60;99.90
17172;DHT22;8701;50.150;8.756;2022-09-16T22:30:43;12.60;99.90
17172;DHT22;8701;50.150;8.756;2022-09-16T22:34:45;12.60;99.90
17172;DHT22;8701;50.150;8.756;2022-09-16T22:38:50;12.60;99.90
17172;DHT22;8701;50.150;8.756;2022-09-16T22:42:54;12.60;99.90
17172;DHT22;8701;50.150;8.756;2022-09-16T22:46:57;12.60;99.90
17172;DHT22;8701;50.150;8.756;2022-09-16T22:51:00;13.30;99.90
17172;DHT22;8701;50.150;8.756;2022-09-16T22:55:05;12.50;99.90
17172;DHT22;8701;50.150;8.756;2022-09-16T22:59:16;12.40;99.90
17172;DHT22;8701;50.150;8.756;2022-09-16T23:03:18;12.40;99.90
17172;DHT22;8701;50.150;8.756;2022-09-16T23:07:21;12.40;99.90
17172;DHT22;8701;50.150;8.756;2022-09-16T23:11:27;12.40;99.90
17172;DHT22;8701;50.150;8.756;2022-09-16T23:15:29;12.40;99.90
17172;DHT22;8701;50.150;8.756;2022-09-16T23:19:34;12.40;99.90
17172;DHT22;8701;50.150;8.756;2022-09-16T23:23:39;12.40;99.90
17172;DHT22;8701;50.150;8.756;2022-09-16T23:27:42;12.40;99.90
17172;DHT22;8701;50.150;8.756;2022-09-16T23:31:45;12.40;99.90
17172;DHT22;8701;50.150;8.756;2022-09-16T23:35:49;12.30;99.90
17172;DHT22;8701;50.150;8.756;2022-09-16T23:39:51;12.20;99.90
17172;DHT22;8701;50.150;8.756;2022-09-16T23:43:55;12.30;99.90
17172;DHT22;8701;50.150;8.756;2022-09-16T23:47:58;12.30;99.90
17172;DHT22;8701;50.150;8.756;2022-09-16T23:52:00;12.40;99.90
17172;DHT22;8701;50.150;8.756;2022-09-16T23:56:04;12.50;99.90
